sensor_id;sensor_type;location;lat;lon;timestamp;P1;durP1;ratioP1;P2;durP2;ratioP2
62832;SDS011;48891;49.220;6.920;2022-09-29T00:01:50;5.13;;;2.70;;
62832;SDS011;48891;49.220;6.920;2022-09-29T00:04:15;4.90;;;2.67;;
62832;SDS011;48891;49.220;6.920;2022-09-29T00:06:40;6.78;;;3.20;;
62832;SDS011;48891;49.220;6.920;2022-09-29T00:09:05;4.73;;;2.53;;
62832;SDS011;48891;49.220;6.920;2022-09-29T00:11:31;5.63;;;2.83;;
62832;SDS011;48891;49.220;6.920;2022-09-29T00:13:56;4.60;;;2.75;;
62832;SDS011;48891;49.220;6.920;2022-09-29T00:16:21;5.60;;;2.97;;
62832;SDS011;48891;49.220;6.920;2022-09-29T00:18:47;6.75;;;2.92;;
62832;SDS011;48891;49.220;6.920;2022-09-29T00:21:13;3.88;;;2.58;;
62832;SDS011;48891;49.220;6.920;2022-09-29T00:23:41;4.47;;;2.80;;
62832;SDS011;48891;49.220;6.920;2022-09-29T00:26:10;4.90;;;2.80;;
62832;SDS011;48891;49.220;6.920;2022-09-29T00:28:38;6.15;;;3.00;;
62832;SDS011;48891;49.220;6.920;2022-09-29T00:31:05;8.95;;;2.90;;
62832;SDS011;48891;49.220;6.920;2022-09-29T00:33:33;4.68;;;2.83;;
62832;SDS011;48891;49.220;6.920;2022-09-29T00:36:09;4.43;;;2.80;;
62832;SDS011;48891;49.220;6.920;2022-09-29T00:38:37;5.22;;;3.10;;
62832;SDS011;48891;49.220;6.920;2022-09-29T00:41:02;5.70;;;3.00;;
62832;SDS011;48891;49.220;6.920;2022-09-29T00:46:19;4.82;;;2.90;;
62832;SDS011;48891;49.220;6.920;2022-09-29T00:49:12;6.47;;;3.17;;
62832;SDS011;48891;49.220;6.920;2022-09-29T00:51:42;6.28;;;3.30;;
62832;SDS011;48891;49.220;6.920;2022-09-29T00:54:12;4.63;;;2.85;;
62832;SDS011;48891;49.220;6.920;2022-09-29T00:56:38;7.40;;;3.53;;
62832;SDS011;48891;49.220;6.920;2022-09-29T00:59:06;6.30;;;2.92;;
62832;SDS011;48891;49.220;6.920;2022-09-29T01:01:36;6.05;;;3.13;;
62832;SDS011;48891;49.220;6.920;2022-09-29T01:04:02;4.90;;;2.80;;
62832;SDS011;48891;49.220;6.920;2022-09-29T01:06:34;6.35;;;3.15;;
62832;SDS011;48891;49.220;6.920;2022-09-29T01:09:04;5.43;;;3.00;;
62832;SDS011;48891;49.220;6.920;2022-09-29T01:11:33;5.55;;;2.70;;
62832;SDS011;48891;49.220;6.920;2022-09-29T01:13:59;5.18;;;3.10;;
62832;SDS011;48891;49.220;6.920;2022-09-29T01:16:27;6.25;;;3.08;;
62832;SDS011;48891;49.220;6.920;2022-09-29T01:18:53;7.82;;;3.20;;
62832;SDS011;48891;49.220;6.920;2022-09-29T01:23:54;5.80;;;3.10;;
62832;SDS011;48891;49.220;6.920;2022-09-29T01:26:53;5.55;;;3.05;;
62832;SDS011;48891;49.220;6.920;2022-09-29T01:32:18;5.72;;;2.92;;
62832;SDS011;48891;49.220;6.920;2022-09-29T01:35:16;6.15;;;2.80;;
62832;SDS011;48891;49.220;6.920;2022-09-29T01:40:36;4.32;;;2.65;;
62832;SDS011;48891;49.220;6.920;2022-09-29T01:46:32;5.88;;;3.20;;
62832;SDS011;48891;49.220;6.920;2022-09-29T01:51:38;7.07;;;3.30;;
62832;SDS011;48891;49.220;6.920;2022-09-29T01:54:15;6.57;;;2.70;;
62832;SDS011;48891;49.220;6.920;2022-09-29T01:57:18;6.20;;;3.00;;
62832;SDS011;48891;49.220;6.920;2022-09-29T02:02:21;5.28;;;3.15;;
62832;SDS011;48891;49.220;6.920;2022-09-29T02:04:56;5.25;;;3.22;;
62832;SDS011;48891;49.220;6.920;2022-09-29T02:07:36;5.85;;;3.13;;
62832;SDS011;48891;49.220;6.920;2022-09-29T02:10:08;4.70;;;2.85;;
62832;SDS011;48891;49.220;6.920;2022-09-29T02:12:38;4.68;;;2.63;;
62832;SDS011;48891;49.220;6.920;2022-09-29T02:15:09;5.00;;;3.00;;
62832;SDS011;48891;49.220;6.920;2022-09-29T02:17:39;6.18;;;3.03;;
62832;SDS011;48891;49.220;6.920;2022-09-29T02:20:09;6.57;;;2.88;;
62832;SDS011;48891;49.220;6.920;2022-09-29T02:22:35;6.28;;;3.33;;
62832;SDS011;48891;49.220;6.920;2022-09-29T02:25:02;6.72;;;3.42;;
62832;SDS011;48891;49.220;6.920;2022-09-29T02:27:28;5.97;;;3.60;;
62832;SDS011;48891;49.220;6.920;2022-09-29T02:29:54;5.97;;;3.13;;
62832;SDS011;48891;49.220;6.920;2022-09-29T02:32:20;5.47;;;2.70;;
62832;SDS011;48891;49.220;6.920;2022-09-29T02:34:46;5.03;;;2.90;;
62832;SDS011;48891;49.220;6.920;2022-09-29T02:40:12;5.25;;;2.97;;
62832;SDS011;48891;49.220;6.920;2022-09-29T02:51:52;5.75;;;3.05;;
62832;SDS011;48891;49.220;6.920;2022-09-29T02:54:45;5.10;;;3.10;;
62832;SDS011;48891;49.220;6.920;2022-09-29T02:57:47;5.15;;;2.70;;
62832;SDS011;48891;49.220;6.920;2022-09-29T03:00:12;4.32;;;2.90;;
62832;SDS011;48891;49.220;6.920;2022-09-29T03:02:39;5.07;;;2.88;;
62832;SDS011;48891;49.220;6.920;2022-09-29T03:05:09;6.47;;;3.20;;
62832;SDS011;48891;49.220;6.920;2022-09-29T03:07:37;4.40;;;2.42;;
62832;SDS011;48891;49.220;6.920;2022-09-29T03:10:03;6.15;;;3.05;;
62832;SDS011;48891;49.220;6.920;2022-09-29T03:12:29;5.07;;;3.00;;
62832;SDS011;48891;49.220;6.920;2022-09-29T03:14:54;5.45;;;2.55;;
62832;SDS011;48891;49.220;6.920;2022-09-29T03:17:19;6.40;;;3.37;;
62832;SDS011;48891;49.220;6.920;2022-09-29T03:19:44;5.83;;;2.97;;
62832;SDS011;48891;49.220;6.920;2022-09-29T03:22:10;4.93;;;2.70;;
62832;SDS011;48891;49.220;6.920;2022-09-29T03:24:35;5.45;;;3.00;;
62832;SDS011;48891;49.220;6.920;2022-09-29T03:27:00;5.55;;;2.80;;
62832;SDS011;48891;49.220;6.920;2022-09-29T03:29:26;6.53;;;3.13;;
62832;SDS011;48891;49.220;6.920;2022-09-29T03:31:51;5.95;;;3.10;;
62832;SDS011;48891;49.220;6.920;2022-09-29T03:34:16;4.60;;;2.67;;
62832;SDS011;48891;49.220;6.920;2022-09-29T03:36:41;4.55;;;2.70;;
62832;SDS011;48891;49.220;6.920;2022-09-29T03:39:07;5.57;;;2.90;;
62832;SDS011;48891;49.220;6.920;2022-09-29T03:41:32;6.22;;;3.03;;
62832;SDS011;48891;49.220;6.920;2022-09-29T03:43:58;5.47;;;2.95;;
62832;SDS011;48891;49.220;6.920;2022-09-29T03:46:23;6.10;;;3.40;;
62832;SDS011;48891;49.220;6.920;2022-09-29T03:48:49;4.57;;;2.90;;
62832;SDS011;48891;49.220;6.920;2022-09-29T03:51:14;4.33;;;2.90;;
62832;SDS011;48891;49.220;6.920;2022-09-29T03:53:39;4.70;;;3.20;;
62832;SDS011;48891;49.220;6.920;2022-09-29T03:56:04;4.97;;;2.97;;
62832;SDS011;48891;49.220;6.920;2022-09-29T03:58:30;5.05;;;2.70;;
62832;SDS011;48891;49.220;6.920;2022-09-29T04:00:55;4.60;;;2.63;;
62832;SDS011;48891;49.220;6.920;2022-09-29T04:03:21;5.57;;;3.20;;
62832;SDS011;48891;49.220;6.920;2022-09-29T04:05:46;5.90;;;2.88;;
62832;SDS011;48891;49.220;6.920;2022-09-29T04:08:12;5.28;;;3.22;;
62832;SDS011;48891;49.220;6.920;2022-09-29T04:10:38;4.65;;;2.78;;
62832;SDS011;48891;49.220;6.920;2022-09-29T04:13:04;5.90;;;2.95;;
62832;SDS011;48891;49.220;6.920;2022-09-29T04:15:31;5.32;;;2.83;;
62832;SDS011;48891;49.220;6.920;2022-09-29T04:17:56;5.57;;;2.55;;
62832;SDS011;48891;49.220;6.920;2022-09-29T04:20:21;5.35;;;2.88;;
62832;SDS011;48891;49.220;6.920;2022-09-29T04:22:46;4.45;;;2.80;;
62832;SDS011;48891;49.220;6.920;2022-09-29T04:25:12;5.60;;;3.30;;
62832;SDS011;48891;49.220;6.920;2022-09-29T04:27:37;6.07;;;2.92;;
62832;SDS011;48891;49.220;6.920;2022-09-29T04:30:03;5.07;;;2.90;;
62832;SDS011;48891;49.220;6.920;2022-09-29T04:32:29;5.18;;;3.00;;
62832;SDS011;48891;49.220;6.920;2022-09-29T04:34:54;5.45;;;2.83;;
62832;SDS011;48891;49.220;6.920;2022-09-29T04:37:20;6.90;;;3.20;;
62832;SDS011;48891;49.220;6.920;2022-09-29T04:39:45;5.10;;;2.70;;
62832;SDS011;48891;49.220;6.920;2022-09-29T04:42:10;5.23;;;2.97;;
62832;SDS011;48891;49.220;6.920;2022-09-29T04:44:35;4.80;;;2.80;;
62832;SDS011;48891;49.220;6.920;2022-09-29T04:47:00;4.93;;;2.70;;
62832;SDS011;48891;49.220;6.920;2022-09-29T04:49:26;6.83;;;2.80;;
62832;SDS011;48891;49.220;6.920;2022-09-29T04:51:51;5.50;;;3.20;;
62832;SDS011;48891;49.220;6.920;2022-09-29T04:54:16;6.57;;;2.97;;
62832;SDS011;48891;49.220;6.920;2022-09-29T04:56:41;4.50;;;2.87;;
62832;SDS011;48891;49.220;6.920;2022-09-29T04:59:08;4.70;;;2.90;;
62832;SDS011;48891;49.220;6.920;2022-09-29T05:01:33;5.85;;;3.00;;
62832;SDS011;48891;49.220;6.920;2022-09-29T05:03:59;6.55;;;3.50;;
62832;SDS011;48891;49.220;6.920;2022-09-29T05:06:24;5.43;;;3.15;;
62832;SDS011;48891;49.220;6.920;2022-09-29T05:08:49;7.95;;;3.78;;
62832;SDS011;48891;49.220;6.920;2022-09-29T05:11:14;5.50;;;3.37;;
62832;SDS011;48891;49.220;6.920;2022-09-29T05:13:40;7.63;;;3.77;;
62832;SDS011;48891;49.220;6.920;2022-09-29T05:16:05;6.82;;;3.60;;
62832;SDS011;48891;49.220;6.920;2022-09-29T05:18:31;7.25;;;3.47;;
62832;SDS011;48891;49.220;6.920;2022-09-29T05:21:03;6.57;;;3.60;;
62832;SDS011;48891;49.220;6.920;2022-09-29T05:23:30;6.60;;;3.45;;
62832;SDS011;48891;49.220;6.920;2022-09-29T05:25:59;6.40;;;3.13;;
62832;SDS011;48891;49.220;6.920;2022-09-29T05:28:28;6.20;;;3.00;;
62832;SDS011;48891;49.220;6.920;2022-09-29T05:30:54;5.05;;;3.05;;
62832;SDS011;48891;49.220;6.920;2022-09-29T05:33:19;5.55;;;3.28;;
62832;SDS011;48891;49.220;6.920;2022-09-29T05:35:44;5.95;;;3.63;;
62832;SDS011;48891;49.220;6.920;2022-09-29T05:38:09;5.97;;;3.17;;
62832;SDS011;48891;49.220;6.920;2022-09-29T05:40:35;5.20;;;2.95;;
62832;SDS011;48891;49.220;6.920;2022-09-29T05:43:00;5.55;;;3.33;;
62832;SDS011;48891;49.220;6.920;2022-09-29T05:45:26;6.13;;;3.33;;
62832;SDS011;48891;49.220;6.920;2022-09-29T05:47:51;5.53;;;3.47;;
62832;SDS011;48891;49.220;6.920;2022-09-29T05:50:16;5.65;;;3.08;;
62832;SDS011;48891;49.220;6.920;2022-09-29T05:52:41;6.00;;;3.20;;
62832;SDS011;48891;49.220;6.920;2022-09-29T05:55:07;5.77;;;3.10;;
62832;SDS011;48891;49.220;6.920;2022-09-29T05:57:33;7.10;;;3.65;;
62832;SDS011;48891;49.220;6.920;2022-09-29T05:59:58;5.45;;;3.30;;
62832;SDS011;48891;49.220;6.920;2022-09-29T06:02:23;6.13;;;3.47;;
62832;SDS011;48891;49.220;6.920;2022-09-29T06:04:48;6.55;;;3.28;;
62832;SDS011;48891;49.220;6.920;2022-09-29T06:07:14;6.20;;;3.45;;
62832;SDS011;48891;49.220;6.920;2022-09-29T06:09:39;4.88;;;3.17;;
62832;SDS011;48891;49.220;6.920;2022-09-29T06:12:04;6.43;;;3.25;;
62832;SDS011;48891;49.220;6.920;2022-09-29T06:14:29;4.82;;;3.20;;
62832;SDS011;48891;49.220;6.920;2022-09-29T06:16:55;4.97;;;3.40;;
62832;SDS011;48891;49.220;6.920;2022-09-29T06:19:20;5.22;;;3.47;;
62832;SDS011;48891;49.220;6.920;2022-09-29T06:21:45;5.75;;;3.30;;
62832;SDS011;48891;49.220;6.920;2022-09-29T06:24:10;6.78;;;3.47;;
62832;SDS011;48891;49.220;6.920;2022-09-29T06:26:36;5.60;;;3.30;;
62832;SDS011;48891;49.220;6.920;2022-09-29T06:29:01;6.30;;;3.30;;
62832;SDS011;48891;49.220;6.920;2022-09-29T06:31:28;6.10;;;3.15;;
62832;SDS011;48891;49.220;6.920;2022-09-29T06:33:58;5.28;;;3.30;;
62832;SDS011;48891;49.220;6.920;2022-09-29T06:36:38;5.65;;;3.47;;
62832;SDS011;48891;49.220;6.920;2022-09-29T06:39:06;5.68;;;3.10;;
62832;SDS011;48891;49.220;6.920;2022-09-29T06:41:32;6.95;;;3.33;;
62832;SDS011;48891;49.220;6.920;2022-09-29T06:43:57;5.82;;;3.55;;
62832;SDS011;48891;49.220;6.920;2022-09-29T06:46:23;5.63;;;3.03;;
62832;SDS011;48891;49.220;6.920;2022-09-29T06:48:48;6.97;;;3.15;;
62832;SDS011;48891;49.220;6.920;2022-09-29T06:51:13;5.47;;;3.20;;
62832;SDS011;48891;49.220;6.920;2022-09-29T06:53:38;5.03;;;2.97;;
62832;SDS011;48891;49.220;6.920;2022-09-29T06:56:04;5.95;;;3.47;;
62832;SDS011;48891;49.220;6.920;2022-09-29T06:58:30;6.00;;;3.33;;
62832;SDS011;48891;49.220;6.920;2022-09-29T07:00:58;6.30;;;3.65;;
62832;SDS011;48891;49.220;6.920;2022-09-29T07:03:24;5.38;;;3.25;;
62832;SDS011;48891;49.220;6.920;2022-09-29T07:05:50;5.07;;;3.27;;
62832;SDS011;48891;49.220;6.920;2022-09-29T07:08:15;5.50;;;2.93;;
62832;SDS011;48891;49.220;6.920;2022-09-29T07:10:40;5.80;;;3.30;;
62832;SDS011;48891;49.220;6.920;2022-09-29T07:13:05;4.67;;;3.17;;
62832;SDS011;48891;49.220;6.920;2022-09-29T07:15:31;7.67;;;3.60;;
62832;SDS011;48891;49.220;6.920;2022-09-29T07:17:59;6.40;;;3.67;;
62832;SDS011;48891;49.220;6.920;2022-09-29T07:20:25;5.20;;;3.45;;
62832;SDS011;48891;49.220;6.920;2022-09-29T07:22:51;6.60;;;3.00;;
62832;SDS011;48891;49.220;6.920;2022-09-29T07:25:17;4.57;;;3.28;;
62832;SDS011;48891;49.220;6.920;2022-09-29T07:27:42;6.43;;;3.63;;
62832;SDS011;48891;49.220;6.920;2022-09-29T07:30:08;6.07;;;3.42;;
62832;SDS011;48891;49.220;6.920;2022-09-29T07:32:34;5.45;;;3.65;;
62832;SDS011;48891;49.220;6.920;2022-09-29T07:34:59;6.32;;;3.17;;
62832;SDS011;48891;49.220;6.920;2022-09-29T07:37:28;4.47;;;3.17;;
62832;SDS011;48891;49.220;6.920;2022-09-29T07:39:53;7.20;;;3.35;;
62832;SDS011;48891;49.220;6.920;2022-09-29T07:42:18;6.30;;;3.60;;
62832;SDS011;48891;49.220;6.920;2022-09-29T07:44:44;4.78;;;3.30;;
62832;SDS011;48891;49.220;6.920;2022-09-29T07:47:09;5.23;;;3.30;;
62832;SDS011;48891;49.220;6.920;2022-09-29T07:49:34;6.28;;;3.40;;
62832;SDS011;48891;49.220;6.920;2022-09-29T07:52:00;6.80;;;3.45;;
62832;SDS011;48891;49.220;6.920;2022-09-29T07:54:25;5.70;;;3.50;;
62832;SDS011;48891;49.220;6.920;2022-09-29T07:56:51;4.35;;;3.08;;
62832;SDS011;48891;49.220;6.920;2022-09-29T07:59:16;5.88;;;3.45;;
62832;SDS011;48891;49.220;6.920;2022-09-29T08:01:41;5.18;;;3.50;;
62832;SDS011;48891;49.220;6.920;2022-09-29T08:04:06;5.73;;;3.23;;
62832;SDS011;48891;49.220;6.920;2022-09-29T08:06:31;6.85;;;3.90;;
62832;SDS011;48891;49.220;6.920;2022-09-29T08:08:58;6.40;;;3.55;;
62832;SDS011;48891;49.220;6.920;2022-09-29T08:11:24;6.22;;;3.80;;
62832;SDS011;48891;49.220;6.920;2022-09-29T08:13:49;6.30;;;3.78;;
62832;SDS011;48891;49.220;6.920;2022-09-29T08:16:15;5.32;;;3.28;;
62832;SDS011;48891;49.220;6.920;2022-09-29T08:18:41;5.47;;;3.53;;
62832;SDS011;48891;49.220;6.920;2022-09-29T08:21:06;6.72;;;3.60;;
62832;SDS011;48891;49.220;6.920;2022-09-29T08:23:37;6.40;;;3.58;;
62832;SDS011;48891;49.220;6.920;2022-09-29T08:28:29;5.40;;;3.50;;
62832;SDS011;48891;49.220;6.920;2022-09-29T08:30:55;6.90;;;4.13;;
62832;SDS011;48891;49.220;6.920;2022-09-29T08:33:20;5.13;;;3.45;;
62832;SDS011;48891;49.220;6.920;2022-09-29T08:35:45;6.10;;;4.00;;
62832;SDS011;48891;49.220;6.920;2022-09-29T08:38:11;5.85;;;3.25;;
62832;SDS011;48891;49.220;6.920;2022-09-29T08:40:36;5.20;;;3.53;;
62832;SDS011;48891;49.220;6.920;2022-09-29T08:43:15;6.53;;;3.63;;
62832;SDS011;48891;49.220;6.920;2022-09-29T08:45:47;5.85;;;3.85;;
62832;SDS011;48891;49.220;6.920;2022-09-29T08:48:20;6.80;;;3.90;;
62832;SDS011;48891;49.220;6.920;2022-09-29T08:50:51;7.63;;;3.78;;
62832;SDS011;48891;49.220;6.920;2022-09-29T08:53:21;5.78;;;3.28;;
62832;SDS011;48891;49.220;6.920;2022-09-29T08:55:57;6.45;;;3.90;;
62832;SDS011;48891;49.220;6.920;2022-09-29T08:58:26;6.13;;;3.13;;
62832;SDS011;48891;49.220;6.920;2022-09-29T09:06:57;7.80;;;3.92;;
62832;SDS011;48891;49.220;6.920;2022-09-29T09:23:19;5.95;;;4.00;;
62832;SDS011;48891;49.220;6.920;2022-09-29T09:28:31;6.25;;;3.78;;
62832;SDS011;48891;49.220;6.920;2022-09-29T09:31:00;6.28;;;3.83;;
62832;SDS011;48891;49.220;6.920;2022-09-29T09:33:51;6.47;;;4.25;;
62832;SDS011;48891;49.220;6.920;2022-09-29T09:36:30;5.97;;;3.95;;
62832;SDS011;48891;49.220;6.920;2022-09-29T09:39:02;5.82;;;3.58;;
62832;SDS011;48891;49.220;6.920;2022-09-29T09:41:35;6.65;;;3.78;;
62832;SDS011;48891;49.220;6.920;2022-09-29T09:44:04;6.55;;;3.65;;
62832;SDS011;48891;49.220;6.920;2022-09-29T09:46:51;6.20;;;3.90;;
62832;SDS011;48891;49.220;6.920;2022-09-29T09:52:09;6.47;;;4.20;;
62832;SDS011;48891;49.220;6.920;2022-09-29T09:54:43;6.75;;;4.32;;
62832;SDS011;48891;49.220;6.920;2022-09-29T10:02:36;7.45;;;4.00;;
62832;SDS011;48891;49.220;6.920;2022-09-29T10:05:09;7.20;;;3.78;;
62832;SDS011;48891;49.220;6.920;2022-09-29T10:07:36;6.97;;;4.10;;
62832;SDS011;48891;49.220;6.920;2022-09-29T10:10:01;6.43;;;3.85;;
62832;SDS011;48891;49.220;6.920;2022-09-29T10:12:29;6.60;;;3.97;;
62832;SDS011;48891;49.220;6.920;2022-09-29T10:14:59;6.00;;;3.55;;
62832;SDS011;48891;49.220;6.920;2022-09-29T10:17:52;5.35;;;3.45;;
62832;SDS011;48891;49.220;6.920;2022-09-29T10:23:28;6.63;;;3.60;;
62832;SDS011;48891;49.220;6.920;2022-09-29T10:25:57;6.78;;;4.05;;
62832;SDS011;48891;49.220;6.920;2022-09-29T10:31:25;5.22;;;3.60;;
62832;SDS011;48891;49.220;6.920;2022-09-29T10:36:52;5.30;;;3.70;;
62832;SDS011;48891;49.220;6.920;2022-09-29T10:39:40;6.07;;;3.38;;
62832;SDS011;48891;49.220;6.920;2022-09-29T10:42:25;6.03;;;3.90;;
62832;SDS011;48891;49.220;6.920;2022-09-29T10:50:24;5.18;;;3.65;;
62832;SDS011;48891;49.220;6.920;2022-09-29T10:53:05;7.53;;;3.97;;
62832;SDS011;48891;49.220;6.920;2022-09-29T10:55:46;6.47;;;3.30;;
62832;SDS011;48891;49.220;6.920;2022-09-29T11:00:49;6.90;;;4.18;;
62832;SDS011;48891;49.220;6.920;2022-09-29T11:03:27;5.63;;;3.58;;
62832;SDS011;48891;49.220;6.920;2022-09-29T11:05:58;7.65;;;3.80;;
62832;SDS011;48891;49.220;6.920;2022-09-29T11:08:27;5.60;;;3.53;;
62832;SDS011;48891;49.220;6.920;2022-09-29T11:13:33;6.03;;;3.45;;
62832;SDS011;48891;49.220;6.920;2022-09-29T11:16:04;5.15;;;3.33;;
62832;SDS011;48891;49.220;6.920;2022-09-29T11:18:49;5.60;;;3.53;;
62832;SDS011;48891;49.220;6.920;2022-09-29T11:26:45;6.00;;;3.70;;
62832;SDS011;48891;49.220;6.920;2022-09-29T11:32:02;6.70;;;3.63;;
62832;SDS011;48891;49.220;6.920;2022-09-29T11:37:39;5.72;;;3.50;;
62832;SDS011;48891;49.220;6.920;2022-09-29T11:40:17;6.25;;;3.33;;
62832;SDS011;48891;49.220;6.920;2022-09-29T11:43:04;5.30;;;3.22;;
62832;SDS011;48891;49.220;6.920;2022-09-29T11:45:42;5.82;;;3.33;;
62832;SDS011;48891;49.220;6.920;2022-09-29T11:48:32;6.82;;;3.42;;
62832;SDS011;48891;49.220;6.920;2022-09-29T11:51:10;4.65;;;3.13;;
62832;SDS011;48891;49.220;6.920;2022-09-29T11:56:27;5.25;;;3.60;;
62832;SDS011;48891;49.220;6.920;2022-09-29T12:01:52;5.57;;;3.50;;
62832;SDS011;48891;49.220;6.920;2022-09-29T12:09:59;4.97;;;3.60;;
62832;SDS011;48891;49.220;6.920;2022-09-29T12:12:37;5.80;;;3.70;;
62832;SDS011;48891;49.220;6.920;2022-09-29T12:18:51;4.55;;;3.20;;
62832;SDS011;48891;49.220;6.920;2022-09-29T12:21:01;6.28;;;3.75;;
62832;SDS011;48891;49.220;6.920;2022-09-29T12:23:28;4.78;;;3.20;;
62832;SDS011;48891;49.220;6.920;2022-09-29T12:28:53;5.95;;;3.83;;
62832;SDS011;48891;49.220;6.920;2022-09-29T12:31:25;5.93;;;3.65;;
62832;SDS011;48891;49.220;6.920;2022-09-29T12:34:05;5.13;;;3.00;;
62832;SDS011;48891;49.220;6.920;2022-09-29T12:36:48;5.15;;;3.13;;
62832;SDS011;48891;49.220;6.920;2022-09-29T12:39:33;4.90;;;3.15;;
62832;SDS011;48891;49.220;6.920;2022-09-29T12:42:23;6.07;;;3.47;;
62832;SDS011;48891;49.220;6.920;2022-09-29T12:45:30;5.65;;;3.58;;
62832;SDS011;48891;49.220;6.920;2022-09-29T12:48:00;6.22;;;3.38;;
62832;SDS011;48891;49.220;6.920;2022-09-29T12:50:59;4.23;;;2.93;;
62832;SDS011;48891;49.220;6.920;2022-09-29T12:53:34;5.22;;;3.20;;
62832;SDS011;48891;49.220;6.920;2022-09-29T12:56:06;5.53;;;3.35;;
62832;SDS011;48891;49.220;6.920;2022-09-29T13:01:55;6.15;;;3.10;;
62832;SDS011;48891;49.220;6.920;2022-09-29T13:13:02;5.95;;;3.50;;
62832;SDS011;48891;49.220;6.920;2022-09-29T13:18:33;4.68;;;3.15;;
62832;SDS011;48891;49.220;6.920;2022-09-29T13:21:17;5.38;;;3.47;;
62832;SDS011;48891;49.220;6.920;2022-09-29T13:23:54;4.60;;;3.08;;
62832;SDS011;48891;49.220;6.920;2022-09-29T13:27:19;5.25;;;3.03;;
62832;SDS011;48891;49.220;6.920;2022-09-29T13:29:33;4.88;;;2.95;;
62832;SDS011;48891;49.220;6.920;2022-09-29T13:32:05;5.20;;;3.10;;
62832;SDS011;48891;49.220;6.920;2022-09-29T13:34:31;4.85;;;3.03;;
62832;SDS011;48891;49.220;6.920;2022-09-29T13:39:30;4.93;;;3.10;;
62832;SDS011;48891;49.220;6.920;2022-09-29T13:41:56;6.15;;;3.22;;
62832;SDS011;48891;49.220;6.920;2022-09-29T13:58:24;3.78;;;2.80;;
62832;SDS011;48891;49.220;6.920;2022-09-29T14:00:52;4.88;;;3.03;;
62832;SDS011;48891;49.220;6.920;2022-09-29T14:03:40;5.15;;;2.97;;
62832;SDS011;48891;49.220;6.920;2022-09-29T14:06:15;4.95;;;3.22;;
62832;SDS011;48891;49.220;6.920;2022-09-29T14:08:50;5.10;;;3.30;;
62832;SDS011;48891;49.220;6.920;2022-09-29T14:11:32;3.90;;;2.70;;
62832;SDS011;48891;49.220;6.920;2022-09-29T14:14:06;4.40;;;2.53;;
62832;SDS011;48891;49.220;6.920;2022-09-29T14:17:00;3.97;;;2.90;;
62832;SDS011;48891;49.220;6.920;2022-09-29T14:27:34;4.10;;;2.80;;
62832;SDS011;48891;49.220;6.920;2022-09-29T14:30:10;4.70;;;3.10;;
62832;SDS011;48891;49.220;6.920;2022-09-29T14:32:39;4.13;;;2.67;;
62832;SDS011;48891;49.220;6.920;2022-09-29T14:35:19;3.95;;;2.55;;
62832;SDS011;48891;49.220;6.920;2022-09-29T14:38:01;4.20;;;2.72;;
62832;SDS011;48891;49.220;6.920;2022-09-29T14:40:30;5.55;;;3.00;;
62832;SDS011;48891;49.220;6.920;2022-09-29T14:43:15;4.38;;;2.63;;
62832;SDS011;48891;49.220;6.920;2022-09-29T14:48:26;4.18;;;2.70;;
62832;SDS011;48891;49.220;6.920;2022-09-29T14:51:08;4.78;;;2.90;;
62832;SDS011;48891;49.220;6.920;2022-09-29T14:53:52;3.67;;;2.70;;
62832;SDS011;48891;49.220;6.920;2022-09-29T14:56:32;4.07;;;2.53;;
62832;SDS011;48891;49.220;6.920;2022-09-29T15:01:38;4.50;;;2.70;;
62832;SDS011;48891;49.220;6.920;2022-09-29T15:04:21;3.92;;;2.75;;
62832;SDS011;48891;49.220;6.920;2022-09-29T15:06:47;4.50;;;2.85;;
62832;SDS011;48891;49.220;6.920;2022-09-29T15:09:16;3.85;;;2.50;;
62832;SDS011;48891;49.220;6.920;2022-09-29T15:11:50;4.57;;;2.70;;
62832;SDS011;48891;49.220;6.920;2022-09-29T15:25:18;4.95;;;2.70;;
62832;SDS011;48891;49.220;6.920;2022-09-29T15:27:48;4.30;;;2.60;;
62832;SDS011;48891;49.220;6.920;2022-09-29T15:30:18;3.60;;;2.60;;
62832;SDS011;48891;49.220;6.920;2022-09-29T15:32:45;4.07;;;2.60;;
62832;SDS011;48891;49.220;6.920;2022-09-29T15:35:12;4.00;;;2.58;;
62832;SDS011;48891;49.220;6.920;2022-09-29T15:40:17;4.28;;;2.50;;
62832;SDS011;48891;49.220;6.920;2022-09-29T15:42:47;3.60;;;2.60;;
62832;SDS011;48891;49.220;6.920;2022-09-29T15:45:17;4.68;;;2.85;;
62832;SDS011;48891;49.220;6.920;2022-09-29T15:47:44;5.03;;;2.70;;
62832;SDS011;48891;49.220;6.920;2022-09-29T15:52:40;4.47;;;3.00;;
62832;SDS011;48891;49.220;6.920;2022-09-29T15:55:10;3.20;;;2.40;;
62832;SDS011;48891;49.220;6.920;2022-09-29T15:57:44;3.58;;;2.30;;
62832;SDS011;48891;49.220;6.920;2022-09-29T16:02:44;3.42;;;2.45;;
62832;SDS011;48891;49.220;6.920;2022-09-29T16:05:12;4.15;;;2.50;;
62832;SDS011;48891;49.220;6.920;2022-09-29T16:08:01;4.07;;;2.42;;
62832;SDS011;48891;49.220;6.920;2022-09-29T16:10:28;3.63;;;2.50;;
62832;SDS011;48891;49.220;6.920;2022-09-29T16:12:59;4.22;;;2.60;;
62832;SDS011;48891;49.220;6.920;2022-09-29T16:15:29;4.40;;;2.60;;
62832;SDS011;48891;49.220;6.920;2022-09-29T16:17:57;4.53;;;2.35;;
62832;SDS011;48891;49.220;6.920;2022-09-29T16:20:25;3.92;;;2.20;;
62832;SDS011;48891;49.220;6.920;2022-09-29T16:22:54;5.68;;;2.38;;
62832;SDS011;48891;49.220;6.920;2022-09-29T16:25:24;4.43;;;2.83;;
62832;SDS011;48891;49.220;6.920;2022-09-29T16:32:52;4.13;;;2.50;;
62832;SDS011;48891;49.220;6.920;2022-09-29T16:38:08;4.78;;;2.90;;
62832;SDS011;48891;49.220;6.920;2022-09-29T16:40:39;3.75;;;2.70;;
62832;SDS011;48891;49.220;6.920;2022-09-29T16:43:05;5.15;;;3.20;;
62832;SDS011;48891;49.220;6.920;2022-09-29T16:48:11;5.07;;;3.15;;
62832;SDS011;48891;49.220;6.920;2022-09-29T16:50:37;4.22;;;2.80;;
62832;SDS011;48891;49.220;6.920;2022-09-29T16:53:17;4.55;;;2.83;;
62832;SDS011;48891;49.220;6.920;2022-09-29T16:55:55;5.28;;;3.00;;
62832;SDS011;48891;49.220;6.920;2022-09-29T16:58:22;4.35;;;2.58;;
62832;SDS011;48891;49.220;6.920;2022-09-29T17:00:48;4.45;;;2.40;;
62832;SDS011;48891;49.220;6.920;2022-09-29T17:03:13;4.05;;;2.63;;
62832;SDS011;48891;49.220;6.920;2022-09-29T17:05:42;5.03;;;3.37;;
62832;SDS011;48891;49.220;6.920;2022-09-29T17:08:13;5.25;;;3.10;;
62832;SDS011;48891;49.220;6.920;2022-09-29T17:10:49;4.63;;;3.10;;
62832;SDS011;48891;49.220;6.920;2022-09-29T17:13:15;4.55;;;3.15;;
62832;SDS011;48891;49.220;6.920;2022-09-29T17:15:41;4.47;;;2.80;;
62832;SDS011;48891;49.220;6.920;2022-09-29T17:18:13;4.68;;;2.70;;
62832;SDS011;48891;49.220;6.920;2022-09-29T17:20:39;4.63;;;3.08;;
62832;SDS011;48891;49.220;6.920;2022-09-29T17:23:05;4.30;;;2.85;;
62832;SDS011;48891;49.220;6.920;2022-09-29T17:25:31;5.07;;;3.20;;
62832;SDS011;48891;49.220;6.920;2022-09-29T17:27:57;5.53;;;3.20;;
62832;SDS011;48891;49.220;6.920;2022-09-29T17:30:23;4.88;;;2.95;;
62832;SDS011;48891;49.220;6.920;2022-09-29T17:32:51;4.80;;;2.78;;
62832;SDS011;48891;49.220;6.920;2022-09-29T17:35:25;5.70;;;3.33;;
62832;SDS011;48891;49.220;6.920;2022-09-29T17:37:52;4.22;;;2.92;;
62832;SDS011;48891;49.220;6.920;2022-09-29T17:40:19;5.18;;;3.03;;
62832;SDS011;48891;49.220;6.920;2022-09-29T17:42:45;4.55;;;2.80;;
62832;SDS011;48891;49.220;6.920;2022-09-29T17:45:10;5.50;;;2.90;;
62832;SDS011;48891;49.220;6.920;2022-09-29T17:47:35;4.77;;;3.30;;
62832;SDS011;48891;49.220;6.920;2022-09-29T17:52:41;4.50;;;3.00;;
62832;SDS011;48891;49.220;6.920;2022-09-29T17:55:06;4.63;;;3.23;;
62832;SDS011;48891;49.220;6.920;2022-09-29T17:57:32;4.38;;;3.05;;
62832;SDS011;48891;49.220;6.920;2022-09-29T17:59:57;4.75;;;3.17;;
62832;SDS011;48891;49.220;6.920;2022-09-29T18:02:22;4.63;;;2.60;;
62832;SDS011;48891;49.220;6.920;2022-09-29T18:04:47;4.83;;;3.03;;
62832;SDS011;48891;49.220;6.920;2022-09-29T18:07:12;4.63;;;2.88;;
62832;SDS011;48891;49.220;6.920;2022-09-29T18:09:41;4.97;;;2.80;;
62832;SDS011;48891;49.220;6.920;2022-09-29T18:12:06;4.70;;;2.92;;
62832;SDS011;48891;49.220;6.920;2022-09-29T18:14:31;5.83;;;3.00;;